sensor_id;sensor_type;location;lat;lon;timestamp;P1;durP1;ratioP1;P2;durP2;ratioP2
71383;SDS011;67558;52.166;5.004;2023-07-24T00:01:48;56.60;;;54.70;;
71383;SDS011;67558;52.166;5.004;2023-07-24T00:04:13;59.70;;;57.90;;
71383;SDS011;67558;52.166;5.004;2023-07-24T00:06:39;58.83;;;56.92;;
71383;SDS011;67558;52.166;5.004;2023-07-24T00:09:04;57.80;;;55.80;;
71383;SDS011;67558;52.166;5.004;2023-07-24T00:11:29;59.97;;;57.97;;
71383;SDS011;67558;52.166;5.004;2023-07-24T00:13:55;64.30;;;62.30;;
71383;SDS011;67558;52.166;5.004;2023-07-24T00:16:20;55.92;;;54.13;;
71383;SDS011;67558;52.166;5.004;2023-07-24T00:18:46;57.15;;;54.95;;
71383;SDS011;67558;52.166;5.004;2023-07-24T00:21:11;60.92;;;58.95;;
71383;SDS011;67558;52.166;5.004;2023-07-24T00:23:38;33.95;;;32.75;;
71383;SDS011;67558;52.166;5.004;2023-07-24T00:26:03;65.05;;;63.05;;
71383;SDS011;67558;52.166;5.004;2023-07-24T00:28:29;58.72;;;56.97;;
71383;SDS011;67558;52.166;5.004;2023-07-24T00:30:54;59.47;;;57.58;;
71383;SDS011;67558;52.166;5.004;2023-07-24T00:33:21;60.78;;;58.85;;
71383;SDS011;67558;52.166;5.004;2023-07-24T00:35:46;56.88;;;54.97;;
71383;SDS011;67558;52.166;5.004;2023-07-24T00:38:12;59.20;;;57.38;;
71383;SDS011;67558;52.166;5.004;2023-07-24T00:40:37;54.40;;;52.60;;
71383;SDS011;67558;52.166;5.004;2023-07-24T00:43:02;55.22;;;53.38;;
71383;SDS011;67558;52.166;5.004;2023-07-24T00:45:28;60.05;;;58.15;;
71383;SDS011;67558;52.166;5.004;2023-07-24T00:47:53;56.65;;;54.70;;
71383;SDS011;67558;52.166;5.004;2023-07-24T00:50:19;39.60;;;38.20;;
71383;SDS011;67558;52.166;5.004;2023-07-24T00:52:45;52.83;;;51.13;;
71383;SDS011;67558;52.166;5.004;2023-07-24T00:55:12;56.47;;;54.70;;
71383;SDS011;67558;52.166;5.004;2023-07-24T00:57:38;63.78;;;61.47;;
71383;SDS011;67558;52.166;5.004;2023-07-24T01:00:05;58.97;;;57.10;;
71383;SDS011;67558;52.166;5.004;2023-07-24T01:02:32;60.67;;;58.75;;
71383;SDS011;67558;52.166;5.004;2023-07-24T01:04:57;59.45;;;57.55;;
71383;SDS011;67558;52.166;5.004;2023-07-24T01:07:23;33.83;;;32.50;;
71383;SDS011;67558;52.166;5.004;2023-07-24T01:09:49;64.22;;;62.25;;
71383;SDS011;67558;52.166;5.004;2023-07-24T01:12:34;62.78;;;60.85;;
71383;SDS011;67558;52.166;5.004;2023-07-24T01:15:17;58.72;;;56.92;;
71383;SDS011;67558;52.166;5.004;2023-07-24T01:17:49;59.40;;;57.35;;
71383;SDS011;67558;52.166;5.004;2023-07-24T01:20:18;64.75;;;62.63;;
71383;SDS011;67558;52.166;5.004;2023-07-24T01:25:33;59.58;;;57.67;;
71383;SDS011;67558;52.166;5.004;2023-07-24T01:28:01;56.42;;;54.58;;
71383;SDS011;67558;52.166;5.004;2023-07-24T01:30:26;58.92;;;57.03;;
71383;SDS011;67558;52.166;5.004;2023-07-24T01:32:51;60.25;;;58.10;;
71383;SDS011;67558;52.166;5.004;2023-07-24T01:35:17;60.17;;;58.35;;
71383;SDS011;67558;52.166;5.004;2023-07-24T01:37:43;37.55;;;36.10;;
71383;SDS011;67558;52.166;5.004;2023-07-24T01:40:09;57.97;;;55.90;;
71383;SDS011;67558;52.166;5.004;2023-07-24T01:42:35;59.08;;;57.25;;
71383;SDS011;67558;52.166;5.004;2023-07-24T01:45:02;53.65;;;52.00;;
71383;SDS011;67558;52.166;5.004;2023-07-24T01:47:29;63.90;;;62.03;;
71383;SDS011;67558;52.166;5.004;2023-07-24T01:49:55;57.78;;;55.92;;
71383;SDS011;67558;52.166;5.004;2023-07-24T01:52:20;58.33;;;56.25;;
71383;SDS011;67558;52.166;5.004;2023-07-24T01:54:46;61.63;;;59.63;;
71383;SDS011;67558;52.166;5.004;2023-07-24T01:57:11;62.53;;;60.40;;
71383;SDS011;67558;52.166;5.004;2023-07-24T01:59:36;52.60;;;50.80;;
71383;SDS011;67558;52.166;5.004;2023-07-24T02:02:02;62.33;;;60.42;;
71383;SDS011;67558;52.166;5.004;2023-07-24T02:04:27;57.92;;;56.13;;
71383;SDS011;67558;52.166;5.004;2023-07-24T02:06:52;62.83;;;60.63;;
71383;SDS011;67558;52.166;5.004;2023-07-24T02:09:18;57.45;;;55.63;;
71383;SDS011;67558;52.166;5.004;2023-07-24T02:11:44;55.40;;;53.50;;
71383;SDS011;67558;52.166;5.004;2023-07-24T02:14:09;60.92;;;59.03;;
71383;SDS011;67558;52.166;5.004;2023-07-24T02:16:36;57.85;;;55.95;;
71383;SDS011;67558;52.166;5.004;2023-07-24T02:19:01;60.13;;;58.17;;
71383;SDS011;67558;52.166;5.004;2023-07-24T02:21:27;58.45;;;56.42;;
71383;SDS011;67558;52.166;5.004;2023-07-24T02:23:52;57.58;;;55.88;;
71383;SDS011;67558;52.166;5.004;2023-07-24T02:26:18;63.58;;;61.65;;
71383;SDS011;67558;52.166;5.004;2023-07-24T02:28:43;52.53;;;50.80;;
71383;SDS011;67558;52.166;5.004;2023-07-24T02:31:08;55.20;;;53.42;;
71383;SDS011;67558;52.166;5.004;2023-07-24T02:33:34;59.60;;;57.70;;
71383;SDS011;67558;52.166;5.004;2023-07-24T02:36:00;60.85;;;59.03;;
71383;SDS011;67558;52.166;5.004;2023-07-24T02:38:26;51.15;;;49.35;;
71383;SDS011;67558;52.166;5.004;2023-07-24T02:40:51;57.85;;;55.95;;
71383;SDS011;67558;52.166;5.004;2023-07-24T02:43:16;57.20;;;55.40;;
71383;SDS011;67558;52.166;5.004;2023-07-24T02:45:42;33.03;;;31.70;;
71383;SDS011;67558;52.166;5.004;2023-07-24T02:48:07;55.63;;;53.83;;
71383;SDS011;67558;52.166;5.004;2023-07-24T02:50:33;56.20;;;54.30;;
71383;SDS011;67558;52.166;5.004;2023-07-24T02:52:58;57.63;;;55.75;;
71383;SDS011;67558;52.166;5.004;2023-07-24T02:55:24;56.08;;;54.38;;
71383;SDS011;67558;52.166;5.004;2023-07-24T02:57:50;58.20;;;56.30;;
71383;SDS011;67558;52.166;5.004;2023-07-24T03:00:16;37.05;;;35.67;;
71383;SDS011;67558;52.166;5.004;2023-07-24T03:02:41;57.80;;;55.83;;
71383;SDS011;67558;52.166;5.004;2023-07-24T03:05:07;55.65;;;53.85;;
71383;SDS011;67558;52.166;5.004;2023-07-24T03:07:32;57.70;;;55.80;;
71383;SDS011;67558;52.166;5.004;2023-07-24T03:09:58;58.10;;;56.10;;
71383;SDS011;67558;52.166;5.004;2023-07-24T03:12:23;55.58;;;53.78;;
71383;SDS011;67558;52.166;5.004;2023-07-24T03:14:49;54.08;;;52.30;;
71383;SDS011;67558;52.166;5.004;2023-07-24T03:17:14;56.03;;;54.20;;
71383;SDS011;67558;52.166;5.004;2023-07-24T03:19:40;55.97;;;53.97;;
71383;SDS011;67558;52.166;5.004;2023-07-24T03:22:06;51.22;;;49.45;;
71383;SDS011;67558;52.166;5.004;2023-07-24T03:24:31;61.28;;;59.17;;
71383;SDS011;67558;52.166;5.004;2023-07-24T03:26:56;52.42;;;50.72;;
71383;SDS011;67558;52.166;5.004;2023-07-24T03:29:22;55.85;;;54.03;;
71383;SDS011;67558;52.166;5.004;2023-07-24T03:31:47;53.53;;;51.63;;
71383;SDS011;67558;52.166;5.004;2023-07-24T03:34:12;53.42;;;51.58;;
71383;SDS011;67558;52.166;5.004;2023-07-24T03:36:38;63.25;;;61.10;;
71383;SDS011;67558;52.166;5.004;2023-07-24T03:39:06;60.88;;;58.55;;
71383;SDS011;67558;52.166;5.004;2023-07-24T03:41:32;52.25;;;50.42;;
71383;SDS011;67558;52.166;5.004;2023-07-24T03:43:57;55.80;;;53.80;;
71383;SDS011;67558;52.166;5.004;2023-07-24T03:46:22;55.92;;;53.97;;
71383;SDS011;67558;52.166;5.004;2023-07-24T03:48:48;53.13;;;51.22;;
71383;SDS011;67558;52.166;5.004;2023-07-24T03:51:15;62.45;;;60.13;;
71383;SDS011;67558;52.166;5.004;2023-07-24T03:53:40;55.88;;;53.72;;
71383;SDS011;67558;52.166;5.004;2023-07-24T03:56:06;60.83;;;58.80;;
71383;SDS011;67558;52.166;5.004;2023-07-24T03:58:31;55.13;;;53.00;;
71383;SDS011;67558;52.166;5.004;2023-07-24T04:00:56;56.35;;;54.33;;
71383;SDS011;67558;52.166;5.004;2023-07-24T04:03:22;56.38;;;54.45;;
71383;SDS011;67558;52.166;5.004;2023-07-24T04:05:47;58.92;;;56.95;;
71383;SDS011;67558;52.166;5.004;2023-07-24T04:08:13;55.35;;;53.35;;
71383;SDS011;67558;52.166;5.004;2023-07-24T04:10:38;54.47;;;52.35;;
71383;SDS011;67558;52.166;5.004;2023-07-24T04:13:03;52.40;;;50.63;;
71383;SDS011;67558;52.166;5.004;2023-07-24T04:15:29;54.10;;;52.30;;
71383;SDS011;67558;52.166;5.004;2023-07-24T04:17:54;59.70;;;57.70;;
71383;SDS011;67558;52.166;5.004;2023-07-24T04:20:19;55.50;;;53.53;;
71383;SDS011;67558;52.166;5.004;2023-07-24T04:22:44;53.30;;;51.33;;
71383;SDS011;67558;52.166;5.004;2023-07-24T04:25:10;55.65;;;53.70;;
71383;SDS011;67558;52.166;5.004;2023-07-24T04:27:36;36.28;;;34.65;;
71383;SDS011;67558;52.166;5.004;2023-07-24T04:30:01;55.10;;;53.30;;
71383;SDS011;67558;52.166;5.004;2023-07-24T04:32:27;53.05;;;51.20;;
71383;SDS011;67558;52.166;5.004;2023-07-24T04:34:53;56.00;;;53.90;;
71383;SDS011;67558;52.166;5.004;2023-07-24T04:37:18;59.45;;;57.50;;
71383;SDS011;67558;52.166;5.004;2023-07-24T04:39:43;62.63;;;60.53;;
71383;SDS011;67558;52.166;5.004;2023-07-24T04:42:09;54.83;;;52.83;;
71383;SDS011;67558;52.166;5.004;2023-07-24T04:44:34;51.95;;;50.22;;
71383;SDS011;67558;52.166;5.004;2023-07-24T04:47:00;55.70;;;53.70;;
71383;SDS011;67558;52.166;5.004;2023-07-24T04:49:28;55.90;;;54.00;;
71383;SDS011;67558;52.166;5.004;2023-07-24T04:51:54;34.20;;;32.60;;
71383;SDS011;67558;52.166;5.004;2023-07-24T04:54:20;52.95;;;51.10;;
71383;SDS011;67558;52.166;5.004;2023-07-24T04:56:45;55.33;;;53.42;;
71383;SDS011;67558;52.166;5.004;2023-07-24T04:59:10;51.97;;;50.03;;
71383;SDS011;67558;52.166;5.004;2023-07-24T05:01:36;56.78;;;54.67;;
71383;SDS011;67558;52.166;5.004;2023-07-24T05:04:01;58.83;;;56.70;;
71383;SDS011;67558;52.166;5.004;2023-07-24T05:06:26;56.30;;;54.28;;
71383;SDS011;67558;52.166;5.004;2023-07-24T05:08:52;58.28;;;56.08;;
71383;SDS011;67558;52.166;5.004;2023-07-24T05:11:18;53.70;;;51.75;;
71383;SDS011;67558;52.166;5.004;2023-07-24T05:13:43;50.10;;;48.20;;
71383;SDS011;67558;52.166;5.004;2023-07-24T05:16:09;35.70;;;33.95;;
71383;SDS011;67558;52.166;5.004;2023-07-24T05:18:34;52.10;;;50.20;;
71383;SDS011;67558;52.166;5.004;2023-07-24T05:20:59;54.50;;;52.60;;
71383;SDS011;67558;52.166;5.004;2023-07-24T05:23:25;56.95;;;54.75;;
71383;SDS011;67558;52.166;5.004;2023-07-24T05:25:57;52.42;;;50.38;;
71383;SDS011;67558;52.166;5.004;2023-07-24T05:28:26;33.10;;;31.45;;
71383;SDS011;67558;52.166;5.004;2023-07-24T05:30:52;52.05;;;50.03;;
71383;SDS011;67558;52.166;5.004;2023-07-24T05:33:18;58.20;;;56.08;;
71383;SDS011;67558;52.166;5.004;2023-07-24T05:35:43;56.45;;;54.45;;
71383;SDS011;67558;52.166;5.004;2023-07-24T05:38:09;57.38;;;55.25;;
71383;SDS011;67558;52.166;5.004;2023-07-24T05:40:34;55.33;;;53.40;;
71383;SDS011;67558;52.166;5.004;2023-07-24T05:43:00;57.00;;;54.63;;
71383;SDS011;67558;52.166;5.004;2023-07-24T05:45:26;60.00;;;57.75;;
71383;SDS011;67558;52.166;5.004;2023-07-24T05:47:52;56.65;;;54.58;;
71383;SDS011;67558;52.166;5.004;2023-07-24T05:50:17;59.05;;;57.13;;
71383;SDS011;67558;52.166;5.004;2023-07-24T05:52:43;52.65;;;50.72;;
71383;SDS011;67558;52.166;5.004;2023-07-24T05:55:08;60.53;;;58.20;;
71383;SDS011;67558;52.166;5.004;2023-07-24T05:57:34;62.08;;;59.90;;
71383;SDS011;67558;52.166;5.004;2023-07-24T05:59:59;56.95;;;54.95;;
71383;SDS011;67558;52.166;5.004;2023-07-24T06:02:25;67.00;;;64.88;;
71383;SDS011;67558;52.166;5.004;2023-07-24T06:04:50;60.15;;;58.15;;
71383;SDS011;67558;52.166;5.004;2023-07-24T06:07:15;40.72;;;39.05;;
71383;SDS011;67558;52.166;5.004;2023-07-24T06:09:41;56.90;;;54.75;;
71383;SDS011;67558;52.166;5.004;2023-07-24T06:12:07;59.05;;;57.00;;
71383;SDS011;67558;52.166;5.004;2023-07-24T06:14:32;32.88;;;31.42;;
71383;SDS011;67558;52.166;5.004;2023-07-24T06:16:57;60.67;;;58.55;;
71383;SDS011;67558;52.166;5.004;2023-07-24T06:19:23;57.50;;;55.55;;
71383;SDS011;67558;52.166;5.004;2023-07-24T06:21:48;59.97;;;57.67;;
71383;SDS011;67558;52.166;5.004;2023-07-24T06:24:14;64.32;;;62.13;;
71383;SDS011;67558;52.166;5.004;2023-07-24T06:26:39;59.75;;;57.60;;
71383;SDS011;67558;52.166;5.004;2023-07-24T06:29:05;58.70;;;56.60;;
71383;SDS011;67558;52.166;5.004;2023-07-24T06:31:30;60.03;;;57.65;;
71383;SDS011;67558;52.166;5.004;2023-07-24T06:33:56;60.35;;;58.15;;
71383;SDS011;67558;52.166;5.004;2023-07-24T06:36:21;58.40;;;56.33;;
71383;SDS011;67558;52.166;5.004;2023-07-24T06:38:46;58.25;;;55.92;;
71383;SDS011;67558;52.166;5.004;2023-07-24T06:41:12;57.42;;;55.30;;
71383;SDS011;67558;52.166;5.004;2023-07-24T06:43:41;57.75;;;55.72;;
71383;SDS011;67558;52.166;5.004;2023-07-24T06:46:07;63.15;;;61.22;;
71383;SDS011;67558;52.166;5.004;2023-07-24T06:48:32;66.00;;;63.45;;
71383;SDS011;67558;52.166;5.004;2023-07-24T06:50:58;56.25;;;54.45;;
71383;SDS011;67558;52.166;5.004;2023-07-24T06:53:23;61.80;;;59.60;;
71383;SDS011;67558;52.166;5.004;2023-07-24T06:55:48;60.28;;;58.13;;
71383;SDS011;67558;52.166;5.004;2023-07-24T06:58:14;68.07;;;65.07;;
71383;SDS011;67558;52.166;5.004;2023-07-24T07:00:39;67.85;;;65.72;;
71383;SDS011;67558;52.166;5.004;2023-07-24T07:03:04;64.03;;;61.63;;
71383;SDS011;67558;52.166;5.004;2023-07-24T07:05:31;64.60;;;61.95;;
71383;SDS011;67558;52.166;5.004;2023-07-24T07:07:57;64.95;;;62.85;;
71383;SDS011;67558;52.166;5.004;2023-07-24T07:10:22;66.38;;;63.97;;
71383;SDS011;67558;52.166;5.004;2023-07-24T07:12:48;63.03;;;60.90;;
71383;SDS011;67558;52.166;5.004;2023-07-24T07:15:13;70.57;;;68.53;;
71383;SDS011;67558;52.166;5.004;2023-07-24T07:17:39;66.95;;;64.72;;
71383;SDS011;67558;52.166;5.004;2023-07-24T07:20:04;67.45;;;65.30;;
71383;SDS011;67558;52.166;5.004;2023-07-24T07:22:30;67.20;;;64.78;;
71383;SDS011;67558;52.166;5.004;2023-07-24T07:24:56;71.30;;;69.03;;
71383;SDS011;67558;52.166;5.004;2023-07-24T07:27:21;65.65;;;63.55;;
71383;SDS011;67558;52.166;5.004;2023-07-24T07:29:47;41.70;;;40.20;;
71383;SDS011;67558;52.166;5.004;2023-07-24T07:32:12;77.32;;;74.80;;
71383;SDS011;67558;52.166;5.004;2023-07-24T07:34:37;74.90;;;72.45;;
71383;SDS011;67558;52.166;5.004;2023-07-24T07:37:04;67.25;;;64.93;;
71383;SDS011;67558;52.166;5.004;2023-07-24T07:39:30;69.00;;;66.90;;
71383;SDS011;67558;52.166;5.004;2023-07-24T07:41:55;66.85;;;64.70;;
71383;SDS011;67558;52.166;5.004;2023-07-24T07:44:21;66.15;;;64.00;;
71383;SDS011;67558;52.166;5.004;2023-07-24T07:46:47;70.75;;;68.53;;
71383;SDS011;67558;52.166;5.004;2023-07-24T07:49:13;70.30;;;68.10;;
71383;SDS011;67558;52.166;5.004;2023-07-24T07:51:41;72.15;;;69.88;;
71383;SDS011;67558;52.166;5.004;2023-07-24T07:54:06;74.38;;;72.15;;
71383;SDS011;67558;52.166;5.004;2023-07-24T07:56:32;70.25;;;67.95;;
71383;SDS011;67558;52.166;5.004;2023-07-24T07:58:57;70.18;;;67.75;;
71383;SDS011;67558;52.166;5.004;2023-07-24T08:01:23;70.28;;;68.00;;
71383;SDS011;67558;52.166;5.004;2023-07-24T08:03:48;69.00;;;67.00;;
71383;SDS011;67558;52.166;5.004;2023-07-24T08:06:13;71.80;;;69.65;;
71383;SDS011;67558;52.166;5.004;2023-07-24T08:08:39;74.88;;;72.57;;
71383;SDS011;67558;52.166;5.004;2023-07-24T08:11:07;73.97;;;71.38;;
71383;SDS011;67558;52.166;5.004;2023-07-24T08:13:33;76.55;;;74.05;;
71383;SDS011;67558;52.166;5.004;2023-07-24T08:15:59;75.60;;;73.20;;
71383;SDS011;67558;52.166;5.004;2023-07-24T08:18:26;79.03;;;76.05;;
71383;SDS011;67558;52.166;5.004;2023-07-24T08:20:51;80.13;;;77.65;;
71383;SDS011;67558;52.166;5.004;2023-07-24T08:23:17;83.20;;;80.38;;
71383;SDS011;67558;52.166;5.004;2023-07-24T08:25:54;76.90;;;74.50;;
71383;SDS011;67558;52.166;5.004;2023-07-24T08:28:20;80.65;;;78.20;;
71383;SDS011;67558;52.166;5.004;2023-07-24T08:30:46;74.80;;;72.10;;
71383;SDS011;67558;52.166;5.004;2023-07-24T08:33:21;71.20;;;69.05;;
71383;SDS011;67558;52.166;5.004;2023-07-24T08:35:46;82.82;;;80.25;;
71383;SDS011;67558;52.166;5.004;2023-07-24T08:38:12;52.80;;;51.05;;
71383;SDS011;67558;52.166;5.004;2023-07-24T08:40:37;82.10;;;79.47;;
71383;SDS011;67558;52.166;5.004;2023-07-24T08:43:04;80.68;;;77.93;;
71383;SDS011;67558;52.166;5.004;2023-07-24T08:45:29;71.60;;;69.43;;
71383;SDS011;67558;52.166;5.004;2023-07-24T08:47:56;74.80;;;72.43;;
71383;SDS011;67558;52.166;5.004;2023-07-24T08:50:22;80.82;;;78.10;;
71383;SDS011;67558;52.166;5.004;2023-07-24T08:52:49;76.38;;;73.68;;
71383;SDS011;67558;52.166;5.004;2023-07-24T08:55:15;94.18;;;91.40;;
71383;SDS011;67558;52.166;5.004;2023-07-24T08:57:41;74.20;;;71.90;;
71383;SDS011;67558;52.166;5.004;2023-07-24T09:00:06;81.53;;;78.75;;
71383;SDS011;67558;52.166;5.004;2023-07-24T09:02:32;71.03;;;68.70;;
71383;SDS011;67558;52.166;5.004;2023-07-24T09:04:58;83.03;;;80.20;;
71383;SDS011;67558;52.166;5.004;2023-07-24T09:07:24;76.70;;;74.32;;
71383;SDS011;67558;52.166;5.004;2023-07-24T09:09:49;71.85;;;69.38;;
71383;SDS011;67558;52.166;5.004;2023-07-24T09:12:15;70.65;;;68.53;;
71383;SDS011;67558;52.166;5.004;2023-07-24T09:14:41;72.55;;;70.22;;
71383;SDS011;67558;52.166;5.004;2023-07-24T09:17:10;78.35;;;75.55;;
71383;SDS011;67558;52.166;5.004;2023-07-24T09:19:36;78.30;;;75.72;;
71383;SDS011;67558;52.166;5.004;2023-07-24T09:22:12;48.63;;;46.70;;
71383;SDS011;67558;52.166;5.004;2023-07-24T09:27:26;70.55;;;68.25;;
71383;SDS011;67558;52.166;5.004;2023-07-24T09:29:52;71.00;;;68.28;;
71383;SDS011;67558;52.166;5.004;2023-07-24T09:32:19;72.38;;;70.13;;
71383;SDS011;67558;52.166;5.004;2023-07-24T09:34:49;71.38;;;69.10;;
71383;SDS011;67558;52.166;5.004;2023-07-24T09:39:55;68.75;;;65.97;;
71383;SDS011;67558;52.166;5.004;2023-07-24T09:42:54;77.50;;;74.85;;
71383;SDS011;67558;52.166;5.004;2023-07-24T09:45:12;73.25;;;70.68;;
71383;SDS011;67558;52.166;5.004;2023-07-24T09:47:39;72.10;;;69.65;;
71383;SDS011;67558;52.166;5.004;2023-07-24T09:50:05;66.93;;;64.57;;
71383;SDS011;67558;52.166;5.004;2023-07-24T09:52:31;80.75;;;78.22;;
71383;SDS011;67558;52.166;5.004;2023-07-24T09:57:41;74.25;;;71.88;;
71383;SDS011;67558;52.166;5.004;2023-07-24T10:00:06;74.32;;;71.85;;
71383;SDS011;67558;52.166;5.004;2023-07-24T10:02:32;69.70;;;67.40;;
71383;SDS011;67558;52.166;5.004;2023-07-24T10:04:59;73.82;;;71.28;;
71383;SDS011;67558;52.166;5.004;2023-07-24T10:07:25;48.30;;;46.58;;
71383;SDS011;67558;52.166;5.004;2023-07-24T10:09:51;70.65;;;68.35;;
71383;SDS011;67558;52.166;5.004;2023-07-24T10:12:20;81.43;;;78.60;;
71383;SDS011;67558;52.166;5.004;2023-07-24T10:14:47;78.72;;;76.25;;
71383;SDS011;67558;52.166;5.004;2023-07-24T10:17:13;75.40;;;72.93;;
71383;SDS011;67558;52.166;5.004;2023-07-24T10:19:42;76.07;;;73.57;;
71383;SDS011;67558;52.166;5.004;2023-07-24T10:22:09;78.93;;;76.45;;
71383;SDS011;67558;52.166;5.004;2023-07-24T10:24:42;79.38;;;76.68;;
71383;SDS011;67558;52.166;5.004;2023-07-24T10:27:07;83.03;;;80.38;;
71383;SDS011;67558;52.166;5.004;2023-07-24T10:29:36;47.08;;;45.47;;
71383;SDS011;67558;52.166;5.004;2023-07-24T10:32:02;78.85;;;76.25;;
71383;SDS011;67558;52.166;5.004;2023-07-24T10:34:39;80.25;;;77.53;;
71383;SDS011;67558;52.166;5.004;2023-07-24T10:37:07;82.18;;;79.60;;
71383;SDS011;67558;52.166;5.004;2023-07-24T10:39:38;81.43;;;78.50;;
71383;SDS011;67558;52.166;5.004;2023-07-24T10:42:06;80.50;;;77.72;;
71383;SDS011;67558;52.166;5.004;2023-07-24T10:44:32;75.32;;;72.82;;
71383;SDS011;67558;52.166;5.004;2023-07-24T10:46:58;84.15;;;81.22;;
71383;SDS011;67558;52.166;5.004;2023-07-24T10:49:23;75.82;;;73.38;;
71383;SDS011;67558;52.166;5.004;2023-07-24T10:51:54;92.95;;;89.93;;
71383;SDS011;67558;52.166;5.004;2023-07-24T10:54:23;78.57;;;76.18;;
71383;SDS011;67558;52.166;5.004;2023-07-24T10:56:48;90.18;;;87.28;;
71383;SDS011;67558;52.166;5.004;2023-07-24T10:59:13;79.30;;;76.95;;
71383;SDS011;67558;52.166;5.004;2023-07-24T11:01:39;78.90;;;76.43;;
71383;SDS011;67558;52.166;5.004;2023-07-24T11:04:06;74.72;;;72.43;;
71383;SDS011;67558;52.166;5.004;2023-07-24T11:06:32;78.28;;;75.78;;
71383;SDS011;67558;52.166;5.004;2023-07-24T11:08:58;74.90;;;72.35;;
71383;SDS011;67558;52.166;5.004;2023-07-24T11:11:31;74.47;;;72.07;;
71383;SDS011;67558;52.166;5.004;2023-07-24T11:13:58;75.88;;;73.57;;
71383;SDS011;67558;52.166;5.004;2023-07-24T11:16:25;80.10;;;77.60;;
71383;SDS011;67558;52.166;5.004;2023-07-24T11:18:50;73.90;;;71.53;;
71383;SDS011;67558;52.166;5.004;2023-07-24T11:21:17;78.07;;;75.68;;
71383;SDS011;67558;52.166;5.004;2023-07-24T11:23:49;79.45;;;77.03;;
71383;SDS011;67558;52.166;5.004;2023-07-24T11:26:23;75.18;;;72.93;;
71383;SDS011;67558;52.166;5.004;2023-07-24T11:28:50;81.25;;;78.90;;
71383;SDS011;67558;52.166;5.004;2023-07-24T11:31:16;80.68;;;78.30;;
71383;SDS011;67558;52.166;5.004;2023-07-24T11:33:44;71.22;;;68.95;;
71383;SDS011;67558;52.166;5.004;2023-07-24T11:36:11;79.97;;;77.65;;
71383;SDS011;67558;52.166;5.004;2023-07-24T11:38:37;75.40;;;73.22;;
71383;SDS011;67558;52.166;5.004;2023-07-24T11:41:03;80.38;;;78.00;;
71383;SDS011;67558;52.166;5.004;2023-07-24T11:43:29;81.45;;;78.93;;
71383;SDS011;67558;52.166;5.004;2023-07-24T11:45:54;81.65;;;79.30;;
71383;SDS011;67558;52.166;5.004;2023-07-24T11:48:21;51.08;;;49.55;;
71383;SDS011;67558;52.166;5.004;2023-07-24T11:50:49;70.78;;;68.57;;
71383;SDS011;67558;52.166;5.004;2023-07-24T11:53:27;82.75;;;80.18;;
71383;SDS011;67558;52.166;5.004;2023-07-24T11:55:59;83.40;;;80.75;;
71383;SDS011;67558;52.166;5.004;2023-07-24T11:58:27;81.25;;;78.95;;
71383;SDS011;67558;52.166;5.004;2023-07-24T12:00:54;75.95;;;73.82;;
71383;SDS011;67558;52.166;5.004;2023-07-24T12:03:20;85.75;;;83.28;;
71383;SDS011;67558;52.166;5.004;2023-07-24T12:05:47;71.78;;;69.47;;
71383;SDS011;67558;52.166;5.004;2023-07-24T12:08:13;81.32;;;78.72;;
71383;SDS011;67558;52.166;5.004;2023-07-24T12:10:42;81.10;;;78.57;;
71383;SDS011;67558;52.166;5.004;2023-07-24T12:13:08;80.97;;;77.97;;
71383;SDS011;67558;52.166;5.004;2023-07-24T12:15:34;74.78;;;72.32;;
71383;SDS011;67558;52.166;5.004;2023-07-24T12:18:00;80.13;;;77.80;;
71383;SDS011;67558;52.166;5.004;2023-07-24T12:20:29;72.45;;;70.25;;
71383;SDS011;67558;52.166;5.004;2023-07-24T12:22:55;75.07;;;72.65;;
71383;SDS011;67558;52.166;5.004;2023-07-24T12:25:21;78.28;;;76.00;;
71383;SDS011;67558;52.166;5.004;2023-07-24T12:27:47;67.55;;;65.32;;
71383;SDS011;67558;52.166;5.004;2023-07-24T12:30:12;67.50;;;65.45;;
71383;SDS011;67558;52.166;5.004;2023-07-24T12:32:38;74.15;;;71.95;;
71383;SDS011;67558;52.166;5.004;2023-07-24T12:35:03;69.85;;;67.70;;
71383;SDS011;67558;52.166;5.004;2023-07-24T12:37:29;73.10;;;71.00;;
71383;SDS011;67558;52.166;5.004;2023-07-24T12:39:55;74.88;;;72.75;;
71383;SDS011;67558;52.166;5.004;2023-07-24T12:45:42;49.75;;;48.25;;
71383;SDS011;67558;52.166;5.004;2023-07-24T12:48:07;71.00;;;68.85;;
71383;SDS011;67558;52.166;5.004;2023-07-24T12:50:33;67.53;;;65.60;;
71383;SDS011;67558;52.166;5.004;2023-07-24T12:52:58;49.80;;;48.20;;
71383;SDS011;67558;52.166;5.004;2023-07-24T12:55:24;83.72;;;81.47;;
71383;SDS011;67558;52.166;5.004;2023-07-24T12:57:49;75.78;;;73.68;;
71383;SDS011;67558;52.166;5.004;2023-07-24T13:00:15;73.93;;;71.72;;
71383;SDS011;67558;52.166;5.004;2023-07-24T13:02:40;74.78;;;72.72;;
71383;SDS011;67558;52.166;5.004;2023-07-24T13:05:06;70.35;;;68.35;;
71383;SDS011;67558;52.166;5.004;2023-07-24T13:07:31;73.30;;;71.25;;
71383;SDS011;67558;52.166;5.004;2023-07-24T13:09:56;46.13;;;44.65;;
71383;SDS011;67558;52.166;5.004;2023-07-24T13:12:22;69.93;;;68.03;;
71383;SDS011;67558;52.166;5.004;2023-07-24T13:14:47;79.35;;;77.25;;
71383;SDS011;67558;52.166;5.004;2023-07-24T13:17:13;65.95;;;63.88;;
71383;SDS011;67558;52.166;5.004;2023-07-24T13:19:38;73.07;;;70.97;;
71383;SDS011;67558;52.166;5.004;2023-07-24T13:22:03;67.47;;;65.68;;
71383;SDS011;67558;52.166;5.004;2023-07-24T13:24:29;75.35;;;73.32;;
71383;SDS011;67558;52.166;5.004;2023-07-24T13:26:54;66.88;;;64.88;;
71383;SDS011;67558;52.166;5.004;2023-07-24T13:29:20;65.57;;;63.80;;
71383;SDS011;67558;52.166;5.004;2023-07-24T13:31:45;71.70;;;69.80;;
71383;SDS011;67558;52.166;5.004;2023-07-24T13:34:10;75.05;;;72.95;;
71383;SDS011;67558;52.166;5.004;2023-07-24T13:36:36;66.18;;;64.18;;
71383;SDS011;67558;52.166;5.004;2023-07-24T13:39:01;74.38;;;72.30;;
71383;SDS011;67558;52.166;5.004;2023-07-24T13:41:27;75.60;;;73.47;;
71383;SDS011;67558;52.166;5.004;2023-07-24T13:43:52;82.07;;;79.80;;
71383;SDS011;67558;52.166;5.004;2023-07-24T13:46:18;78.13;;;75.82;;
71383;SDS011;67558;52.166;5.004;2023-07-24T13:48:43;69.28;;;67.47;;
71383;SDS011;67558;52.166;5.004;2023-07-24T13:51:09;75.85;;;73.75;;
71383;SDS011;67558;52.166;5.004;2023-07-24T13:53:34;79.55;;;77.25;;
71383;SDS011;67558;52.166;5.004;2023-07-24T13:56:00;77.25;;;75.03;;
71383;SDS011;67558;52.166;5.004;2023-07-24T13:58:25;71.93;;;69.95;;
71383;SDS011;67558;52.166;5.004;2023-07-24T14:00:50;72.00;;;69.90;;
71383;SDS011;67558;52.166;5.004;2023-07-24T14:03:16;69.32;;;67.43;;
71383;SDS011;67558;52.166;5.004;2023-07-24T14:05:41;84.28;;;81.97;;
71383;SDS011;67558;52.166;5.004;2023-07-24T14:08:07;74.25;;;72.25;;
71383;SDS011;67558;52.166;5.004;2023-07-24T14:10:33;73.22;;;71.07;;
71383;SDS011;67558;52.166;5.004;2023-07-24T14:12:58;71.43;;;69.35;;
71383;SDS011;67558;52.166;5.004;2023-07-24T14:15:24;69.28;;;67.38;;
71383;SDS011;67558;52.166;5.004;2023-07-24T14:17:49;75.25;;;73.05;;
71383;SDS011;67558;52.166;5.004;2023-07-24T14:20:14;71.47;;;69.32;;
71383;SDS011;67558;52.166;5.004;2023-07-24T14:22:40;73.03;;;70.82;;
71383;SDS011;67558;52.166;5.004;2023-07-24T14:25:05;72.43;;;70.53;;
71383;SDS011;67558;52.166;5.004;2023-07-24T14:27:31;70.82;;;68.90;;
71383;SDS011;67558;52.166;5.004;2023-07-24T14:29:57;75.32;;;73.35;;